Time;durP1;ratioP1;P1;durP2;ratioP2;P2;SDS_P1;SDS_P2;PMS_P1;PMS_P2;Temp;Humidity;BMP_temperature;BMP_pressure;BME280_temperature;BME280_humidity;BME280_pressure;Samples;Min_cycle;Max_cycle;Signal;HPM_P1;HPM_P2
2021/10/09 00:00:06;;;;;;;;;;;;;;;;;;4978562;28;19918;-80
2021/10/09 00:02:31;;;;;;;;;;;;;;;;;;4962737;28;20329;-80
2021/10/09 00:05:03;;;;;;;;;;;;;;;;;;4977430;28;19918;-81
2021/10/09 00:07:29;;;;;;;;;;;;;;;;;;4976851;28;19973;-80
2021/10/09 00:09:59;;;;;;;;;;;;;;;;;;4994872;28;19918;-81
2021/10/09 00:12:25;;;;;;;;;;;;;;;;;;4979360;28;19918;-80
2021/10/09 00:14:50;;;;;;;;;;;;;;;;;;4974603;28;20012;-80
2021/10/09 00:17:18;;;;;;;;;;;;;;;;;;4975637;28;20005;-80
2021/10/09 00:19:51;;;;;;;;;;;;;;;;;;4960305;28;20384;-79
2021/10/09 00:22:23;;;;;;;;;;;;;;;;;;4960152;28;20396;-80
2021/10/09 00:24:59;;;;;;;;;;;;;;;;;;4977850;28;19934;-80
2021/10/09 00:27:25;;;;;;;;;;;;;;;;;;4994860;28;19960;-80
2021/10/09 00:29:51;;;;;;;;;;;;;;;;;;4993776;28;19918;-80
2021/10/09 00:32:16;;;;;;;;;;;;;;;;;;4976550;28;19953;-80
2021/10/09 00:34:41;;;;;;;;;;;;;;;;;;4976236;28;19918;-80
2021/10/09 00:37:23;;;;;;;;;;;;;;;;;;4986672;28;19929;-80
2021/10/09 00:39:49;;;;;;;;;;;;;;;;;;4980761;28;19918;-80
2021/10/09 00:42:20;;;;;;;;;;;;;;;;;;4987819;28;20004;-80
2021/10/09 00:44:46;;;;;;;;;;;;;;;;;;4974380;28;20010;-81
2021/10/09 00:47:11;;;;;;;;;;;;;;;;;;4990044;28;20004;-80
2021/10/09 00:49:36;;;;;;;;;;;;;;;;;;4994671;28;19921;-81
2021/10/09 00:52:03;;;;;;;;;;;;;;;;;;4987967;28;19929;-80
2021/10/09 00:54:28;;;;;;;;;;;;;;;;;;4974522;28;19922;-80
2021/10/09 00:56:55;;;;;;;;;;;;;;;;;;4969325;28;19918;-81
2021/10/09 00:59:21;;;;;;;;;;;;;;;;;;4977099;28;19925;-81
2021/10/09 01:01:46;;;;;;;;;;;;;;;;;;4978161;28;19922;-81
2021/10/09 01:04:11;;;;;;;;;;;;;;;;;;4978066;28;19920;-81
2021/10/09 01:06:37;;;;;;;;;;;;;;;;;;4961498;28;20292;-80
2021/10/09 01:09:02;;;;;;;;;;;;;;;;;;4976697;28;20380;-81
2021/10/09 01:11:28;;;;;;;;;;;;;;;;;;4990707;28;19922;-81
2021/10/09 01:13:53;;;;;;;;;;;;;;;;;;4993897;28;19913;-80
2021/10/09 01:16:19;;;;;;;;;;;;;;;;;;4977482;28;20314;-81
2021/10/09 01:18:46;;;;;;;;;;;;;;;;;;4993280;28;19929;-80
2021/10/09 01:21:11;;;;;;;;;;;;;;;;;;4977696;28;20005;-81
2021/10/09 01:23:37;;;;;;;;;;;;;;;;;;4994050;28;20029;-83
2021/10/09 01:26:04;;;;;;;;;;;;;;;;;;4960982;28;20392;-80
2021/10/09 01:28:29;;;;;;;;;;;;;;;;;;4976577;28;19917;-80
2021/10/09 01:30:54;;;;;;;;;;;;;;;;;;4977419;28;20009;-80
2021/10/09 01:33:20;;;;;;;;;;;;;;;;;;4960760;28;19929;-80
2021/10/09 01:35:47;;;;;;;;;;;;;;;;;;4979621;28;19914;-79
2021/10/09 01:38:16;;;;;;;;;;;;;;;;;;4996992;28;19920;-80
2021/10/09 01:40:41;;;;;;;;;;;;;;;;;;4975047;28;20359;-80
2021/10/09 01:43:10;;;;;;;;;;;;;;;;;;4977065;28;20024;-79
2021/10/09 01:45:35;;;;;;;;;;;;;;;;;;4992960;28;19946;-80
2021/10/09 01:48:01;;;;;;;;;;;;;;;;;;4976534;28;20426;-80
2021/10/09 01:50:26;;;;;;;;;;;;;;;;;;4960760;28;20284;-80
2021/10/09 01:52:51;;;;;;;;;;;;;;;;;;4977283;28;19964;-80
2021/10/09 01:55:16;;;;;;;;;;;;;;;;;;4976548;28;19914;-80
2021/10/09 01:57:43;;;;;;;;;;;;;;;;;;4960719;28;19917;-80
2021/10/09 02:00:08;;;;;;;;;;;;;;;;;;4976661;28;19917;-80
2021/10/09 02:02:33;;;;;;;;;;;;;;;;;;4976583;28;19921;-80
2021/10/09 02:04:59;;;;;;;;;;;;;;;;;;4973520;28;20625;-80
2021/10/09 02:07:25;;;;;;;;;;;;;;;;;;4976050;28;19918;-80
2021/10/09 02:09:51;;;;;;;;;;;;;;;;;;4960030;28;20403;-80
2021/10/09 02:12:16;;;;;;;;;;;;;;;;;;4992859;28;19918;-80
2021/10/09 02:14:47;;;;;;;;;;;;;;;;;;4976037;28;19920;-80
2021/10/09 02:25:38;;;;;;;;;;;;;;;;;;4978013;28;19917;-79
2021/10/09 02:28:03;;;;;;;;;;;;;;;;;;4978184;28;19929;-79
2021/10/09 02:30:29;;;;;;;;;;;;;;;;;;4960099;28;19925;-79
2021/10/09 02:32:54;;;;;;;;;;;;;;;;;;4975867;28;19925;-79
2021/10/09 02:35:20;;;;;;;;;;;;;;;;;;4960006;28;20415;-79
2021/10/09 02:37:45;;;;;;;;;;;;;;;;;;5009881;28;19913;-79
2021/10/09 02:40:11;;;;;;;;;;;;;;;;;;4975522;28;19918;-79
2021/10/09 02:42:36;;;;;;;;;;;;;;;;;;4960003;28;19922;-79
2021/10/09 02:45:01;;;;;;;;;;;;;;;;;;4976321;28;19914;-79
2021/10/09 02:47:27;;;;;;;;;;;;;;;;;;4959466;28;19934;-79
2021/10/09 02:49:52;;;;;;;;;;;;;;;;;;4959720;28;20009;-79
2021/10/09 02:52:18;;;;;;;;;;;;;;;;;;4960113;28;19984;-80
2021/10/09 02:54:43;;;;;;;;;;;;;;;;;;4959292;28;19980;-80
2021/10/09 02:57:08;;;;;;;;;;;;;;;;;;4972230;28;20404;-79
2021/10/09 02:59:33;;;;;;;;;;;;;;;;;;4972875;28;19922;-80
2021/10/09 03:01:59;;;;;;;;;;;;;;;;;;4972629;28;19917;-80
2021/10/09 03:04:24;;;;;;;;;;;;;;;;;;4975175;28;19922;-79
2021/10/09 03:06:49;;;;;;;;;;;;;;;;;;4976169;28;19965;-80
2021/10/09 03:09:14;;;;;;;;;;;;;;;;;;4991708;28;19917;-79
2021/10/09 03:11:40;;;;;;;;;;;;;;;;;;4991252;28;19926;-79
2021/10/09 03:14:05;;;;;;;;;;;;;;;;;;4958535;28;20382;-80
2021/10/09 03:16:30;;;;;;;;;;;;;;;;;;4959399;28;19925;-79
2021/10/09 03:18:56;;;;;;;;;;;;;;;;;;4991804;28;19914;-79
2021/10/09 03:21:21;;;;;;;;;;;;;;;;;;4975107;28;19925;-79
2021/10/09 03:23:46;;;;;;;;;;;;;;;;;;4975435;28;19925;-80
2021/10/09 03:26:12;;;;;;;;;;;;;;;;;;4975077;28;19928;-79
2021/10/09 03:28:37;;;;;;;;;;;;;;;;;;4958075;28;19922;-79
2021/10/09 03:31:02;;;;;;;;;;;;;;;;;;4958996;28;19977;-80
2021/10/09 03:33:28;;;;;;;;;;;;;;;;;;4991386;28;20395;-79
2021/10/09 03:35:53;;;;;;;;;;;;;;;;;;4992673;28;19914;-79
2021/10/09 03:38:19;;;;;;;;;;;;;;;;;;4956817;28;19917;-78
2021/10/09 03:40:48;;;;;;;;;;;;;;;;;;4971644;28;20343;-79
2021/10/09 03:43:17;;;;;;;;;;;;;;;;;;4987672;28;19926;-79
2021/10/09 03:53:04;;;;;;;;;;;;;;;;;;5004675;28;19959;-79
2021/10/09 03:55:29;;;;;;;;;;;;;;;;;;4991320;28;19913;-79
2021/10/09 03:57:54;;;;;;;;;;;;;;;;;;4991108;28;19917;-79
2021/10/09 04:00:20;;;;;;;;;;;;;;;;;;4990643;28;19925;-79
2021/10/09 04:02:45;;;;;;;;;;;;;;;;;;4995193;28;19924;-79
2021/10/09 04:05:11;;;;;;;;;;;;;;;;;;4975281;28;19917;-79
2021/10/09 04:07:36;;;;;;;;;;;;;;;;;;4974768;28;20019;-78
2021/10/09 04:10:03;;;;;;;;;;;;;;;;;;4990383;28;20396;-79
2021/10/09 04:12:28;;;;;;;;;;;;;;;;;;4991319;28;19926;-79
2021/10/09 04:14:53;;;;;;;;;;;;;;;;;;4958292;28;19918;-79
2021/10/09 04:17:19;;;;;;;;;;;;;;;;;;4974768;28;19917;-80
2021/10/09 04:19:44;;;;;;;;;;;;;;;;;;4990700;28;19976;-79
2021/10/09 04:22:09;;;;;;;;;;;;;;;;;;4958857;28;19960;-79
2021/10/09 04:24:35;;;;;;;;;;;;;;;;;;4990783;28;19918;-79
2021/10/09 04:27:00;;;;;;;;;;;;;;;;;;4975040;28;19917;-79
2021/10/09 04:29:26;;;;;;;;;;;;;;;;;;4974781;28;20005;-79
2021/10/09 04:31:51;;;;;;;;;;;;;;;;;;4974851;28;20364;-79
2021/10/09 04:34:16;;;;;;;;;;;;;;;;;;4958883;28;19913;-79
2021/10/09 04:36:42;;;;;;;;;;;;;;;;;;4994055;28;20753;-79
2021/10/09 04:39:07;;;;;;;;;;;;;;;;;;4991179;28;19925;-79
2021/10/09 04:41:32;;;;;;;;;;;;;;;;;;4994436;28;19925;-79
2021/10/09 04:43:58;;;;;;;;;;;;;;;;;;4978133;28;19928;-79
2021/10/09 04:46:23;;;;;;;;;;;;;;;;;;4977191;28;19967;-79
2021/10/09 04:48:48;;;;;;;;;;;;;;;;;;4978294;28;19914;-79
2021/10/09 04:51:14;;;;;;;;;;;;;;;;;;4961466;28;19933;-79
2021/10/09 04:53:39;;;;;;;;;;;;;;;;;;4977892;28;19965;-79
2021/10/09 04:56:05;;;;;;;;;;;;;;;;;;4977863;28;19925;-80
2021/10/09 04:58:30;;;;;;;;;;;;;;;;;;4977963;28;19924;-82
2021/10/09 05:00:55;;;;;;;;;;;;;;;;;;4977921;28;19914;-81
2021/10/09 05:03:21;;;;;;;;;;;;;;;;;;4977940;28;19913;-82
2021/10/09 05:05:46;;;;;;;;;;;;;;;;;;4977662;28;19913;-82
2021/10/09 05:08:11;;;;;;;;;;;;;;;;;;4959767;28;19922;-82
2021/10/09 05:10:38;;;;;;;;;;;;;;;;;;4958882;28;20625;-81
2021/10/09 05:13:03;;;;;;;;;;;;;;;;;;4975585;28;20376;-80
2021/10/09 05:15:29;;;;;;;;;;;;;;;;;;4993506;28;19920;-82
2021/10/09 05:17:54;;;;;;;;;;;;;;;;;;4993053;28;20299;-81
2021/10/09 05:20:19;;;;;;;;;;;;;;;;;;4977261;28;19925;-81
2021/10/09 05:22:45;;;;;;;;;;;;;;;;;;4976723;28;19917;-81
2021/10/09 05:25:10;;;;;;;;;;;;;;;;;;4977548;28;19925;-81
2021/10/09 05:27:37;;;;;;;;;;;;;;;;;;4961266;28;19917;-80
2021/10/09 05:30:08;;;;;;;;;;;;;;;;;;4960271;28;19960;-81
2021/10/09 05:32:36;;;;;;;;;;;;;;;;;;4993990;28;19918;-80
2021/10/09 05:35:02;;;;;;;;;;;;;;;;;;4961522;28;20000;-81
2021/10/09 05:37:28;;;;;;;;;;;;;;;;;;4990075;28;19968;-80
2021/10/09 05:39:53;;;;;;;;;;;;;;;;;;4973139;28;19922;-81
2021/10/09 05:42:18;;;;;;;;;;;;;;;;;;4973989;28;19918;-79
2021/10/09 05:44:44;;;;;;;;;;;;;;;;;;4990053;28;19918;-80
2021/10/09 05:47:09;;;;;;;;;;;;;;;;;;4989862;28;19914;-80
2021/10/09 05:49:36;;;;;;;;;;;;;;;;;;4973324;28;19918;-80
2021/10/09 05:52:14;;;;;;;;;;;;;;;;;;4977716;28;19918;-80
2021/10/09 05:54:45;;;;;;;;;;;;;;;;;;4992885;28;19929;-81
2021/10/09 05:57:14;;;;;;;;;;;;;;;;;;4961483;28;19921;-81
2021/10/09 07:01:09;;;;;;;;;;;;;;;;;;4977689;28;19925;-83
2021/10/09 07:03:35;;;;;;;;;;;;;;;;;;4959554;28;19922;-82
2021/10/09 07:06:00;;;;;;;;;;;;;;;;;;4976032;28;19917;-81
2021/10/09 07:08:25;;;;;;;;;;;;;;;;;;4959424;28;20287;-83
2021/10/09 07:10:53;;;;;;;;;;;;;;;;;;4991752;28;19918;-83
2021/10/09 07:13:18;;;;;;;;;;;;;;;;;;4976348;28;20405;-83
2021/10/09 07:15:43;;;;;;;;;;;;;;;;;;4994391;28;19913;-84
2021/10/09 07:18:10;;;;;;;;;;;;;;;;;;4978730;28;20008;-83
2021/10/09 07:20:36;;;;;;;;;;;;;;;;;;4978979;28;20283;-83
2021/10/09 07:23:02;;;;;;;;;;;;;;;;;;4995064;28;19920;-84
2021/10/09 07:25:27;;;;;;;;;;;;;;;;;;4978878;28;19913;-84
2021/10/09 07:27:52;;;;;;;;;;;;;;;;;;4978666;28;19960;-84
2021/10/09 07:30:18;;;;;;;;;;;;;;;;;;4978553;28;20005;-84
2021/10/09 07:32:44;;;;;;;;;;;;;;;;;;4995434;28;19979;-83
2021/10/09 07:35:10;;;;;;;;;;;;;;;;;;4978961;28;19913;-84
2021/10/09 07:37:35;;;;;;;;;;;;;;;;;;4995330;28;19914;-84
2021/10/09 07:40:00;;;;;;;;;;;;;;;;;;4978047;28;19921;-84
2021/10/09 07:42:26;;;;;;;;;;;;;;;;;;4978582;28;19917;-84
2021/10/09 07:44:51;;;;;;;;;;;;;;;;;;4978167;28;19913;-83
2021/10/09 07:47:17;;;;;;;;;;;;;;;;;;4995261;28;19913;-83
2021/10/09 07:49:42;;;;;;;;;;;;;;;;;;4994718;28;19913;-84
2021/10/09 07:52:08;;;;;;;;;;;;;;;;;;4978634;28;19924;-83
2021/10/09 07:54:33;;;;;;;;;;;;;;;;;;4994554;28;19925;-84
2021/10/09 07:56:58;;;;;;;;;;;;;;;;;;4982985;28;19952;-83
2021/10/09 07:59:23;;;;;;;;;;;;;;;;;;4958947;28;19918;-84
2021/10/09 08:01:49;;;;;;;;;;;;;;;;;;4975407;28;19952;-84
2021/10/09 08:04:16;;;;;;;;;;;;;;;;;;4975044;28;19918;-84
2021/10/09 08:06:41;;;;;;;;;;;;;;;;;;4959453;28;19964;-83
2021/10/09 08:09:06;;;;;;;;;;;;;;;;;;4974801;28;19925;-83
2021/10/09 08:11:33;;;;;;;;;;;;;;;;;;4955082;28;20130;-83
2021/10/09 08:13:59;;;;;;;;;;;;;;;;;;4985422;28;20356;-82
2021/10/09 08:16:24;;;;;;;;;;;;;;;;;;4978660;28;19918;-83
2021/10/09 08:18:49;;;;;;;;;;;;;;;;;;4962635;28;19917;-84
2021/10/09 08:21:15;;;;;;;;;;;;;;;;;;4979065;28;19969;-84
2021/10/09 08:23:45;;;;;;;;;;;;;;;;;;4994898;28;20402;-85
2021/10/09 08:39:44;;;;;;;;;;;;;;;;;;4979358;28;19965;-85
2021/10/09 08:42:09;;;;;;;;;;;;;;;;;;4961737;28;19968;-84
2021/10/09 08:44:35;;;;;;;;;;;;;;;;;;4962198;28;20008;-84
2021/10/09 08:47:00;;;;;;;;;;;;;;;;;;4962207;28;19913;-85
2021/10/09 08:49:26;;;;;;;;;;;;;;;;;;4978499;28;19957;-85
2021/10/09 08:51:51;;;;;;;;;;;;;;;;;;4978410;28;19929;-85
2021/10/09 08:54:17;;;;;;;;;;;;;;;;;;4962073;28;19913;-85
2021/10/09 08:56:47;;;;;;;;;;;;;;;;;;4961619;28;19914;-84
2021/10/09 08:59:31;;;;;;;;;;;;;;;;;;4962580;28;20012;-85
2021/10/09 09:02:03;;;;;;;;;;;;;;;;;;5011154;28;19925;-85
2021/10/09 09:04:38;;;;;;;;;;;;;;;;;;4962266;28;19921;-85
2021/10/09 09:26:19;;;;;;;;;;;;;;;;;;5013027;28;19914;-85
2021/10/09 09:37:06;;;;;;;;;;;;;;;;;;4996643;28;20476;-86
2021/10/09 09:39:38;;;;;;;;;;;;;;;;;;4982042;28;20060;-84
2021/10/09 09:42:04;;;;;;;;;;;;;;;;;;4996771;28;20009;-85
2021/10/09 09:44:29;;;;;;;;;;;;;;;;;;4996845;28;19929;-85
2021/10/09 09:47:01;;;;;;;;;;;;;;;;;;4980633;28;20284;-85
2021/10/09 09:49:29;;;;;;;;;;;;;;;;;;4980620;28;19988;-84
2021/10/09 09:51:55;;;;;;;;;;;;;;;;;;4980548;28;20382;-82
2021/10/09 09:54:25;;;;;;;;;;;;;;;;;;5012483;28;19913;-83
2021/10/09 09:56:51;;;;;;;;;;;;;;;;;;4970172;28;19914;-82
2021/10/09 09:59:16;;;;;;;;;;;;;;;;;;4976967;28;19996;-82
2021/10/09 10:01:41;;;;;;;;;;;;;;;;;;4976872;28;19945;-82
2021/10/09 10:04:07;;;;;;;;;;;;;;;;;;4993117;28;20276;-83
2021/10/09 10:06:32;;;;;;;;;;;;;;;;;;4960647;28;19914;-82
2021/10/09 10:08:58;;;;;;;;;;;;;;;;;;4976058;28;19918;-82
2021/10/09 10:11:24;;;;;;;;;;;;;;;;;;4960400;28;19984;-82
2021/10/09 10:13:49;;;;;;;;;;;;;;;;;;5021571;28;19917;-82
2021/10/09 10:16:14;;;;;;;;;;;;;;;;;;4996399;28;19925;-82
2021/10/09 10:18:45;;;;;;;;;;;;;;;;;;4995935;28;19960;-82
2021/10/09 10:21:11;;;;;;;;;;;;;;;;;;4985183;28;19918;-81
2021/10/09 10:23:41;;;;;;;;;;;;;;;;;;4975855;28;19917;-82
2021/10/09 10:26:20;;;;;;;;;;;;;;;;;;4967597;28;19918;-82
2021/10/09 10:28:48;;;;;;;;;;;;;;;;;;5008585;28;19925;-82
2021/10/09 10:31:13;;;;;;;;;;;;;;;;;;4961360;28;19944;-82
2021/10/09 10:33:41;;;;;;;;;;;;;;;;;;4973668;28;19930;-81
2021/10/09 10:36:08;;;;;;;;;;;;;;;;;;4969196;28;19917;-82
2021/10/09 10:38:35;;;;;;;;;;;;;;;;;;4991134;28;19930;-82
2021/10/09 10:41:03;;;;;;;;;;;;;;;;;;4985973;28;19918;-82
2021/10/09 10:46:02;;;;;;;;;;;;;;;;;;4994783;28;20351;-82
2021/10/09 10:48:48;;;;;;;;;;;;;;;;;;4981317;28;19925;-82
2021/10/09 10:51:32;;;;;;;;;;;;;;;;;;4992880;28;19933;-82
2021/10/09 10:59:25;;;;;;;;;;;;;;;;;;5008319;28;20376;-84
2021/10/09 11:02:05;;;;;;;;;;;;;;;;;;5008164;28;19918;-85
2021/10/09 11:04:34;;;;;;;;;;;;;;;;;;4959325;28;19917;-82
2021/10/09 11:06:59;;;;;;;;;;;;;;;;;;4975421;28;19924;-80
2021/10/09 11:09:25;;;;;;;;;;;;;;;;;;4975211;28;19922;-80
2021/10/09 11:11:50;;;;;;;;;;;;;;;;;;4991476;28;19918;-81
2021/10/09 11:14:22;;;;;;;;;;;;;;;;;;5005471;28;19914;-81
2021/10/09 11:16:47;;;;;;;;;;;;;;;;;;4956005;28;19914;-80
2021/10/09 11:19:12;;;;;;;;;;;;;;;;;;4956083;28;19995;-80
2021/10/09 11:21:53;;;;;;;;;;;;;;;;;;4972612;28;20337;-81
2021/10/09 11:24:19;;;;;;;;;;;;;;;;;;4975631;28;19944;-81
2021/10/09 11:26:51;;;;;;;;;;;;;;;;;;4975397;28;19918;-80
2021/10/09 11:29:16;;;;;;;;;;;;;;;;;;4991843;28;19920;-80
2021/10/09 11:31:41;;;;;;;;;;;;;;;;;;4975279;28;20000;-80
2021/10/09 11:34:07;;;;;;;;;;;;;;;;;;4959368;28;19925;-80
2021/10/09 11:36:41;;;;;;;;;;;;;;;;;;4975039;28;19914;-81
2021/10/09 11:39:11;;;;;;;;;;;;;;;;;;4974881;28;19926;-80
2021/10/09 11:41:36;;;;;;;;;;;;;;;;;;4975032;28;19945;-80
2021/10/09 11:44:05;;;;;;;;;;;;;;;;;;4990789;28;19918;-81
2021/10/09 11:55:13;;;;;;;;;;;;;;;;;;4995127;28;19913;-80
2021/10/09 11:57:38;;;;;;;;;;;;;;;;;;4978947;28;19933;-80
2021/10/09 12:00:24;;;;;;;;;;;;;;;;;;4979577;28;20001;-81
2021/10/09 12:02:49;;;;;;;;;;;;;;;;;;4978801;28;19913;-80
2021/10/09 12:05:14;;;;;;;;;;;;;;;;;;4995016;28;19917;-80
2021/10/09 12:07:40;;;;;;;;;;;;;;;;;;4979334;28;20005;-80
2021/10/09 12:10:11;;;;;;;;;;;;;;;;;;4978864;28;19949;-82
2021/10/09 12:12:37;;;;;;;;;;;;;;;;;;4980363;28;20335;-82
2021/10/09 12:15:02;;;;;;;;;;;;;;;;;;4962421;28;19913;-86
2021/10/09 12:17:35;;;;;;;;;;;;;;;;;;4995287;28;19918;-81
2021/10/09 12:20:01;;;;;;;;;;;;;;;;;;4978748;28;19914;-82
2021/10/09 12:22:26;;;;;;;;;;;;;;;;;;4994930;28;20012;-81
2021/10/09 12:24:52;;;;;;;;;;;;;;;;;;4962543;28;19987;-80
2021/10/09 12:27:37;;;;;;;;;;;;;;;;;;4962454;28;19921;-79
2021/10/09 12:30:04;;;;;;;;;;;;;;;;;;4994675;28;19921;-80
2021/10/09 12:32:30;;;;;;;;;;;;;;;;;;4978028;28;19925;-84
2021/10/09 12:35:02;;;;;;;;;;;;;;;;;;4962140;28;19918;-84
2021/10/09 12:37:28;;;;;;;;;;;;;;;;;;4978573;28;19920;-82
2021/10/09 12:40:07;;;;;;;;;;;;;;;;;;4994809;28;19922;-82
2021/10/09 12:42:32;;;;;;;;;;;;;;;;;;4993755;28;19953;-82
2021/10/09 12:44:57;;;;;;;;;;;;;;;;;;4977742;28;20407;-82
2021/10/09 12:47:22;;;;;;;;;;;;;;;;;;4962044;28;20293;-82
2021/10/09 12:49:48;;;;;;;;;;;;;;;;;;4961702;28;20004;-82
2021/10/09 12:52:13;;;;;;;;;;;;;;;;;;4994579;28;19918;-82
2021/10/09 12:54:38;;;;;;;;;;;;;;;;;;4977886;28;19925;-82
2021/10/09 12:57:07;;;;;;;;;;;;;;;;;;4977879;28;20426;-82
2021/10/09 12:59:33;;;;;;;;;;;;;;;;;;4975752;28;19921;-82
2021/10/09 13:01:58;;;;;;;;;;;;;;;;;;4978152;28;19918;-82
2021/10/09 13:04:23;;;;;;;;;;;;;;;;;;4977725;28;19913;-82
2021/10/09 13:06:49;;;;;;;;;;;;;;;;;;4961814;28;19964;-82
2021/10/09 13:09:18;;;;;;;;;;;;;;;;;;4977789;28;20376;-83
2021/10/09 13:11:48;;;;;;;;;;;;;;;;;;4993021;28;20009;-82
2021/10/09 13:14:13;;;;;;;;;;;;;;;;;;4993760;28;19925;-82
2021/10/09 13:16:39;;;;;;;;;;;;;;;;;;5013304;28;19917;-82
2021/10/09 13:19:05;;;;;;;;;;;;;;;;;;4997439;28;20347;-82
2021/10/09 13:21:30;;;;;;;;;;;;;;;;;;4981267;28;20361;-82
2021/10/09 13:23:55;;;;;;;;;;;;;;;;;;4960841;28;19964;-82
2021/10/09 13:26:21;;;;;;;;;;;;;;;;;;4977083;28;19925;-82
2021/10/09 13:28:46;;;;;;;;;;;;;;;;;;4977735;28;19924;-82
2021/10/09 13:31:11;;;;;;;;;;;;;;;;;;4993383;28;19918;-81
2021/10/09 13:33:36;;;;;;;;;;;;;;;;;;4993656;28;19917;-81
2021/10/09 13:36:05;;;;;;;;;;;;;;;;;;4993324;28;20356;-83
2021/10/09 13:38:44;;;;;;;;;;;;;;;;;;4961081;28;20273;-82
2021/10/09 13:41:11;;;;;;;;;;;;;;;;;;4995015;28;19918;-78
2021/10/09 13:43:36;;;;;;;;;;;;;;;;;;4977291;28;19921;-78
2021/10/09 13:46:01;;;;;;;;;;;;;;;;;;4992851;28;19914;-78
2021/10/09 13:48:26;;;;;;;;;;;;;;;;;;4976818;28;19957;-78
2021/10/09 13:50:53;;;;;;;;;;;;;;;;;;4993092;28;19968;-78
2021/10/09 13:53:18;;;;;;;;;;;;;;;;;;4976885;28;19922;-82
2021/10/09 13:55:44;;;;;;;;;;;;;;;;;;4992568;28;19918;-82
2021/10/09 13:58:11;;;;;;;;;;;;;;;;;;4976359;28;19980;-81
2021/10/09 14:00:37;;;;;;;;;;;;;;;;;;4976739;28;19918;-82
2021/10/09 14:03:02;;;;;;;;;;;;;;;;;;4977243;28;20431;-82
2021/10/09 14:05:29;;;;;;;;;;;;;;;;;;4960520;28;19925;-82
2021/10/09 14:07:54;;;;;;;;;;;;;;;;;;4976954;28;19921;-82
2021/10/09 14:10:19;;;;;;;;;;;;;;;;;;4992869;28;19925;-82
2021/10/09 14:12:45;;;;;;;;;;;;;;;;;;4995342;28;20020;-82
2021/10/09 14:15:11;;;;;;;;;;;;;;;;;;5011923;28;20276;-82
2021/10/09 14:17:37;;;;;;;;;;;;;;;;;;4975754;28;19941;-82
2021/10/09 14:20:03;;;;;;;;;;;;;;;;;;4976473;28;19914;-81
2021/10/09 14:22:28;;;;;;;;;;;;;;;;;;4976098;28;20384;-82
2021/10/09 14:24:53;;;;;;;;;;;;;;;;;;4960469;28;20394;-82
2021/10/09 14:27:19;;;;;;;;;;;;;;;;;;4960303;28;20367;-82
2021/10/09 14:29:44;;;;;;;;;;;;;;;;;;4960070;28;19913;-82
2021/10/09 14:32:09;;;;;;;;;;;;;;;;;;4976169;28;20009;-83
2021/10/09 14:34:34;;;;;;;;;;;;;;;;;;4959403;28;19972;-83
2021/10/09 14:37:00;;;;;;;;;;;;;;;;;;4974726;28;19914;-83
2021/10/09 14:39:27;;;;;;;;;;;;;;;;;;4990805;28;20423;-83
2021/10/09 14:41:52;;;;;;;;;;;;;;;;;;4991314;28;19922;-82
2021/10/09 14:44:17;;;;;;;;;;;;;;;;;;4975835;28;19957;-84
2021/10/09 14:49:21;;;;;;;;;;;;;;;;;;4976277;28;19967;-82
2021/10/09 15:18:44;;;;;;;;;;;;;;;;;;4975277;28;19924;-81
2021/10/09 15:21:09;;;;;;;;;;;;;;;;;;4958989;28;19968;-83
2021/10/09 15:23:35;;;;;;;;;;;;;;;;;;4971178;28;19938;-82
2021/10/09 15:26:00;;;;;;;;;;;;;;;;;;4981264;28;19924;-80
2021/10/09 15:28:25;;;;;;;;;;;;;;;;;;4955174;28;20433;-81
2021/10/09 15:30:50;;;;;;;;;;;;;;;;;;4991808;28;19914;-81
2021/10/09 15:33:16;;;;;;;;;;;;;;;;;;4959283;28;20012;-81
2021/10/09 15:35:41;;;;;;;;;;;;;;;;;;4991687;28;19913;-84
2021/10/09 15:38:06;;;;;;;;;;;;;;;;;;4959270;28;19953;-83
2021/10/09 15:40:32;;;;;;;;;;;;;;;;;;4975060;28;19959;-83
2021/10/09 15:42:57;;;;;;;;;;;;;;;;;;4990626;28;19922;-79
2021/10/09 15:45:22;;;;;;;;;;;;;;;;;;4983028;28;19918;-80
2021/10/09 15:47:48;;;;;;;;;;;;;;;;;;4964582;28;19922;-82
2021/10/09 15:50:13;;;;;;;;;;;;;;;;;;4966369;28;19951;-82
2021/10/09 15:52:41;;;;;;;;;;;;;;;;;;4964737;28;20415;-81
2021/10/09 15:55:06;;;;;;;;;;;;;;;;;;4969233;28;20004;-82
2021/10/09 15:57:31;;;;;;;;;;;;;;;;;;4950228;28;19997;-83
2021/10/09 15:59:57;;;;;;;;;;;;;;;;;;4991186;28;19918;-82
2021/10/09 16:02:22;;;;;;;;;;;;;;;;;;4991431;28;20328;-81
2021/10/09 16:04:47;;;;;;;;;;;;;;;;;;4991538;28;19936;-82
2021/10/09 16:07:12;;;;;;;;;;;;;;;;;;4974478;28;19917;-83
2021/10/09 16:09:38;;;;;;;;;;;;;;;;;;4974642;28;19921;-83
2021/10/09 16:12:03;;;;;;;;;;;;;;;;;;4971427;28;19922;-82
2021/10/09 16:14:28;;;;;;;;;;;;;;;;;;4974625;28;19948;-82
2021/10/09 16:16:53;;;;;;;;;;;;;;;;;;4958693;28;19964;-81
2021/10/09 16:19:19;;;;;;;;;;;;;;;;;;4968745;28;19925;-82
2021/10/09 16:21:48;;;;;;;;;;;;;;;;;;4967912;28;20588;-82
2021/10/09 16:24:13;;;;;;;;;;;;;;;;;;4967125;28;19921;-82
2021/10/09 16:26:44;;;;;;;;;;;;;;;;;;4992327;28;19918;-82
2021/10/09 16:29:09;;;;;;;;;;;;;;;;;;4990875;28;19925;-84
2021/10/09 16:31:35;;;;;;;;;;;;;;;;;;4975510;28;20307;-85
2021/10/09 16:34:00;;;;;;;;;;;;;;;;;;4975407;28;20009;-85
2021/10/09 16:36:26;;;;;;;;;;;;;;;;;;4977271;28;19976;-84
2021/10/09 16:38:52;;;;;;;;;;;;;;;;;;4978250;28;19913;-85
2021/10/09 16:41:17;;;;;;;;;;;;;;;;;;4962070;28;20307;-83
2021/10/09 16:43:42;;;;;;;;;;;;;;;;;;4977952;28;19924;-84
2021/10/09 16:46:08;;;;;;;;;;;;;;;;;;4994829;28;19921;-83
2021/10/09 16:48:33;;;;;;;;;;;;;;;;;;4990514;28;19938;-83
2021/10/09 16:50:58;;;;;;;;;;;;;;;;;;4975456;28;19930;-83
2021/10/09 16:53:24;;;;;;;;;;;;;;;;;;4991254;28;20265;-81
2021/10/09 16:55:49;;;;;;;;;;;;;;;;;;4976765;28;19922;-83
2021/10/09 16:58:14;;;;;;;;;;;;;;;;;;4961696;28;19948;-82
2021/10/09 17:00:39;;;;;;;;;;;;;;;;;;4961919;28;19918;-82
2021/10/09 17:03:05;;;;;;;;;;;;;;;;;;4977614;28;19949;-82
2021/10/09 17:05:30;;;;;;;;;;;;;;;;;;4977842;28;20056;-82
2021/10/09 17:07:55;;;;;;;;;;;;;;;;;;4993934;28;19949;-82
2021/10/09 17:10:21;;;;;;;;;;;;;;;;;;4977556;28;19940;-82
2021/10/09 17:12:46;;;;;;;;;;;;;;;;;;4965411;28;19929;-82
2021/10/09 17:15:11;;;;;;;;;;;;;;;;;;5012368;28;20055;-81
2021/10/09 17:17:37;;;;;;;;;;;;;;;;;;4961451;28;20003;-82
2021/10/09 17:20:02;;;;;;;;;;;;;;;;;;4977641;28;19921;-82
2021/10/09 17:22:28;;;;;;;;;;;;;;;;;;4977676;28;19913;-81
2021/10/09 17:24:53;;;;;;;;;;;;;;;;;;4993085;28;19922;-82
2021/10/09 17:27:18;;;;;;;;;;;;;;;;;;4977331;28;19921;-82
2021/10/09 17:29:44;;;;;;;;;;;;;;;;;;4975369;28;20001;-81
2021/10/09 17:32:09;;;;;;;;;;;;;;;;;;4965816;28;20324;-81
2021/10/09 17:34:34;;;;;;;;;;;;;;;;;;4959407;28;19942;-80
2021/10/09 17:37:00;;;;;;;;;;;;;;;;;;4969434;28;19965;-82
2021/10/09 17:39:25;;;;;;;;;;;;;;;;;;4965884;28;19930;-82
2021/10/09 17:41:51;;;;;;;;;;;;;;;;;;4953922;28;20353;-82
2021/10/09 17:44:16;;;;;;;;;;;;;;;;;;4971072;28;20364;-82
2021/10/09 17:46:42;;;;;;;;;;;;;;;;;;4966494;28;19921;-82
2021/10/09 17:49:07;;;;;;;;;;;;;;;;;;4969288;28;19925;-82
2021/10/09 17:51:35;;;;;;;;;;;;;;;;;;4968232;28;20326;-82
2021/10/09 17:54:01;;;;;;;;;;;;;;;;;;4951350;28;19937;-81
2021/10/09 17:56:27;;;;;;;;;;;;;;;;;;4970710;28;19926;-81
2021/10/09 17:58:53;;;;;;;;;;;;;;;;;;4981482;28;19914;-82
2021/10/09 18:01:18;;;;;;;;;;;;;;;;;;4957898;28;19918;-81
2021/10/09 18:03:43;;;;;;;;;;;;;;;;;;4973174;28;19922;-82
2021/10/09 18:06:08;;;;;;;;;;;;;;;;;;4990072;28;19922;-82
2021/10/09 18:08:34;;;;;;;;;;;;;;;;;;4975487;28;19918;-82
2021/10/09 18:10:59;;;;;;;;;;;;;;;;;;4960305;28;20004;-82
2021/10/09 18:13:24;;;;;;;;;;;;;;;;;;5001697;28;19949;-82
2021/10/09 18:15:50;;;;;;;;;;;;;;;;;;5012572;28;20283;-81
2021/10/09 18:18:16;;;;;;;;;;;;;;;;;;5012343;28;19924;-81
2021/10/09 18:20:41;;;;;;;;;;;;;;;;;;4996110;28;19921;-81
2021/10/09 18:23:07;;;;;;;;;;;;;;;;;;4996044;28;19917;-81
2021/10/09 18:25:32;;;;;;;;;;;;;;;;;;5008767;28;19914;-81
2021/10/09 18:27:58;;;;;;;;;;;;;;;;;;4987129;28;20467;-81
2021/10/09 18:30:23;;;;;;;;;;;;;;;;;;4987895;28;19921;-82
2021/10/09 18:32:48;;;;;;;;;;;;;;;;;;4989026;28;19919;-81
2021/10/09 18:35:14;;;;;;;;;;;;;;;;;;4973114;28;19918;-81
2021/10/09 18:37:39;;;;;;;;;;;;;;;;;;4989370;28;19914;-81
2021/10/09 18:40:04;;;;;;;;;;;;;;;;;;4973070;28;20268;-82
2021/10/09 18:42:30;;;;;;;;;;;;;;;;;;4956933;28;19968;-82
2021/10/09 18:44:55;;;;;;;;;;;;;;;;;;4945645;28;19922;-82
2021/10/09 18:47:20;;;;;;;;;;;;;;;;;;4979342;28;19914;-81
2021/10/09 18:49:46;;;;;;;;;;;;;;;;;;4956539;28;19976;-81
2021/10/09 18:52:11;;;;;;;;;;;;;;;;;;4957030;28;19918;-81
2021/10/09 18:54:37;;;;;;;;;;;;;;;;;;4967683;28;19922;-81
2021/10/09 18:57:02;;;;;;;;;;;;;;;;;;4985428;28;20291;-81
2021/10/09 18:59:27;;;;;;;;;;;;;;;;;;4966322;28;20277;-81
2021/10/09 19:01:53;;;;;;;;;;;;;;;;;;4949001;28;20073;-81
2021/10/09 19:04:18;;;;;;;;;;;;;;;;;;4986287;28;19918;-81
2021/10/09 19:06:43;;;;;;;;;;;;;;;;;;4991523;28;19939;-81
2021/10/09 19:09:09;;;;;;;;;;;;;;;;;;4990725;28;19917;-82
2021/10/09 19:11:34;;;;;;;;;;;;;;;;;;4989897;28;19926;-81
2021/10/09 19:13:59;;;;;;;;;;;;;;;;;;5021127;28;20339;-82
2021/10/09 19:16:24;;;;;;;;;;;;;;;;;;4978885;28;19920;-84
2021/10/09 19:18:50;;;;;;;;;;;;;;;;;;4978595;28;19983;-82
2021/10/09 19:21:15;;;;;;;;;;;;;;;;;;4975300;28;19924;-82
2021/10/09 19:23:40;;;;;;;;;;;;;;;;;;4975017;28;19922;-83